Terminal Aerodrome Forecast
Issued by NWS

Home | Current Version | Previous Version | Text Only | Print | Product List | Glossary On
Versions: 1 2 3 4 5 6 7 8 9 10 11 12 13 14 15 16
392
FTUS42 KTBW 291727
TAFRSW
TAF
KRSW 291727Z 2918/3018 26006KT P6SM VCTS SCT025CB BKN100
     FM292000 26008KT P6SM VCTS SCT035CB BKN130
     FM300000 VRB04KT P6SM VCSH SCT030 BKN200
     FM300300 18003KT P6SM SCT025 SCT250
     FM301200 15002KT P6SM VCSH SCT025 SCT250
     FM301500 23004KT P6SM VCTS SCT025CB BKN250=

USA.gov is the U.S. government's official web portal to all federal, state and local government web resources and services.